sensor_id;sensor_type;location;lat;lon;timestamp;pressure;altitude;pressure_sealevel;temperature;humidity
20971;BME280;10644;48.834;10.088;2023-03-30T00:01:11;96389.50;;;16.78;46.96
20971;BME280;10644;48.834;10.088;2023-03-30T00:03:45;96385.38;;;16.76;47.14
20971;BME280;10644;48.834;10.088;2023-03-30T00:06:14;96383.31;;;16.70;46.98
20971;BME280;10644;48.834;10.088;2023-03-30T00:08:53;96387.28;;;16.74;47.45
20971;BME280;10644;48.834;10.088;2023-03-30T00:11:25;96388.66;;;16.78;47.11
20971;BME280;10644;48.834;10.088;2023-03-30T00:13:59;96389.09;;;16.83;47.21
20971;BME280;10644;48.834;10.088;2023-03-30T00:16:24;96380.69;;;16.90;46.98
20971;BME280;10644;48.834;10.088;2023-03-30T00:18:53;96378.78;;;16.92;47.26
20971;BME280;10644;48.834;10.088;2023-03-30T00:21:18;96373.81;;;17.00;47.20
20971;BME280;10644;48.834;10.088;2023-03-30T00:23:45;96382.97;;;17.04;47.18
20971;BME280;10644;48.834;10.088;2023-03-30T00:26:12;96378.16;;;17.00;47.31
20971;BME280;10644;48.834;10.088;2023-03-30T00:28:38;96384.59;;;17.05;47.16
20971;BME280;10644;48.834;10.088;2023-03-30T00:31:03;96378.88;;;17.02;46.97
20971;BME280;10644;48.834;10.088;2023-03-30T00:33:31;96384.72;;;17.04;46.93
20971;BME280;10644;48.834;10.088;2023-03-30T00:35:57;96402.91;;;16.93;47.90
20971;BME280;10644;48.834;10.088;2023-03-30T00:38:25;96396.78;;;16.94;48.08
20971;BME280;10644;48.834;10.088;2023-03-30T00:40:56;96422.78;;;16.92;48.43
20971;BME280;10644;48.834;10.088;2023-03-30T00:43:23;96421.97;;;16.92;49.06
20971;BME280;10644;48.834;10.088;2023-03-30T00:45:49;96428.75;;;16.63;50.65
20971;BME280;10644;48.834;10.088;2023-03-30T00:48:23;96434.03;;;16.61;51.28
20971;BME280;10644;48.834;10.088;2023-03-30T00:50:55;96463.59;;;16.48;52.55
20971;BME280;10644;48.834;10.088;2023-03-30T00:55:55;96445.94;;;16.53;53.87
20971;BME280;10644;48.834;10.088;2023-03-30T00:58:22;96442.13;;;16.68;53.92
20971;BME280;10644;48.834;10.088;2023-03-30T01:00:50;96438.31;;;16.72;54.01
20971;BME280;10644;48.834;10.088;2023-03-30T01:03:40;96440.97;;;16.81;53.37
20971;BME280;10644;48.834;10.088;2023-03-30T01:06:10;96430.94;;;16.88;53.45
20971;BME280;10644;48.834;10.088;2023-03-30T01:08:36;96428.78;;;16.93;53.40
20971;BME280;10644;48.834;10.088;2023-03-30T01:11:05;96440.53;;;16.97;53.93
20971;BME280;10644;48.834;10.088;2023-03-30T01:13:37;96427.44;;;16.98;55.19
20971;BME280;10644;48.834;10.088;2023-03-30T01:16:09;96429.44;;;16.65;56.26
20971;BME280;10644;48.834;10.088;2023-03-30T01:34:54;96337.59;;;16.18;61.07
20971;BME280;10644;48.834;10.088;2023-03-30T01:46:50;96344.22;;;16.32;60.84
20971;BME280;10644;48.834;10.088;2023-03-30T01:49:26;96337.19;;;16.34;60.49
20971;BME280;10644;48.834;10.088;2023-03-30T01:55:16;96324.78;;;15.96;62.36
20971;BME280;10644;48.834;10.088;2023-03-30T01:57:54;96321.13;;;15.99;62.16
20971;BME280;10644;48.834;10.088;2023-03-30T02:00:21;96308.53;;;15.85;62.62
20971;BME280;10644;48.834;10.088;2023-03-30T02:02:52;96302.97;;;15.69;62.10
20971;BME280;10644;48.834;10.088;2023-03-30T02:05:21;96311.56;;;15.90;61.85
20971;BME280;10644;48.834;10.088;2023-03-30T02:07:52;96327.53;;;15.95;62.26
20971;BME280;10644;48.834;10.088;2023-03-30T02:10:21;96331.97;;;15.93;61.73
20971;BME280;10644;48.834;10.088;2023-03-30T02:12:49;96335.66;;;16.11;61.16
20971;BME280;10644;48.834;10.088;2023-03-30T02:15:16;96328.91;;;16.19;60.33
20971;BME280;10644;48.834;10.088;2023-03-30T02:17:44;96343.34;;;16.22;60.80
20971;BME280;10644;48.834;10.088;2023-03-30T02:20:12;96337.66;;;16.28;60.42
20971;BME280;10644;48.834;10.088;2023-03-30T02:22:38;96342.94;;;16.37;59.11
20971;BME280;10644;48.834;10.088;2023-03-30T02:25:05;96344.78;;;16.15;59.44
20971;BME280;10644;48.834;10.088;2023-03-30T02:27:32;96346.34;;;15.86;60.12
20971;BME280;10644;48.834;10.088;2023-03-30T02:29:58;96342.31;;;15.93;60.08
20971;BME280;10644;48.834;10.088;2023-03-30T02:32:25;96333.03;;;15.90;60.15
20971;BME280;10644;48.834;10.088;2023-03-30T02:51:43;96343.91;;;16.05;59.87
20971;BME280;10644;48.834;10.088;2023-03-30T02:56:45;96353.50;;;16.34;58.89
20971;BME280;10644;48.834;10.088;2023-03-30T02:59:27;96347.13;;;16.49;58.48
20971;BME280;10644;48.834;10.088;2023-03-30T03:02:04;96330.81;;;16.58;58.32
20971;BME280;10644;48.834;10.088;2023-03-30T03:04:33;96329.75;;;16.61;58.65
20971;BME280;10644;48.834;10.088;2023-03-30T03:06:59;96334.41;;;16.67;58.24
20971;BME280;10644;48.834;10.088;2023-03-30T03:09:27;96336.81;;;16.59;58.56
20971;BME280;10644;48.834;10.088;2023-03-30T03:11:53;96337.06;;;16.56;58.87
20971;BME280;10644;48.834;10.088;2023-03-30T03:14:19;96333.41;;;16.58;58.56
20971;BME280;10644;48.834;10.088;2023-03-30T03:16:45;96336.06;;;16.68;58.60
20971;BME280;10644;48.834;10.088;2023-03-30T03:19:11;96344.00;;;16.76;58.29
20971;BME280;10644;48.834;10.088;2023-03-30T03:21:36;96332.69;;;16.77;58.66
20971;BME280;10644;48.834;10.088;2023-03-30T03:24:03;96347.59;;;16.64;59.08
20971;BME280;10644;48.834;10.088;2023-03-30T03:26:28;96354.28;;;16.66;59.31
20971;BME280;10644;48.834;10.088;2023-03-30T03:28:54;96351.50;;;16.79;59.17
20971;BME280;10644;48.834;10.088;2023-03-30T03:31:19;96346.06;;;16.82;58.78
20971;BME280;10644;48.834;10.088;2023-03-30T03:33:46;96350.31;;;16.92;58.53
20971;BME280;10644;48.834;10.088;2023-03-30T03:36:11;96351.84;;;16.95;58.78
20971;BME280;10644;48.834;10.088;2023-03-30T03:38:37;96345.63;;;16.77;59.32
20971;BME280;10644;48.834;10.088;2023-03-30T03:41:03;96348.41;;;16.85;59.37
20971;BME280;10644;48.834;10.088;2023-03-30T03:43:28;96350.28;;;16.83;59.48
20971;BME280;10644;48.834;10.088;2023-03-30T03:45:54;96351.41;;;16.90;59.41
20971;BME280;10644;48.834;10.088;2023-03-30T03:48:22;96345.38;;;16.80;60.13
20971;BME280;10644;48.834;10.088;2023-03-30T03:50:52;96341.97;;;16.79;60.35
20971;BME280;10644;48.834;10.088;2023-03-30T03:53:19;96341.84;;;16.81;60.68
20971;BME280;10644;48.834;10.088;2023-03-30T03:55:47;96350.25;;;16.73;61.41
20971;BME280;10644;48.834;10.088;2023-03-30T03:58:13;96339.94;;;16.83;61.03
20971;BME280;10644;48.834;10.088;2023-03-30T04:00:39;96329.25;;;16.97;60.71
20971;BME280;10644;48.834;10.088;2023-03-30T04:03:05;96310.75;;;17.01;60.44
20971;BME280;10644;48.834;10.088;2023-03-30T04:05:34;96303.00;;;17.11;60.54
20971;BME280;10644;48.834;10.088;2023-03-30T04:08:00;96302.47;;;17.17;60.30
20971;BME280;10644;48.834;10.088;2023-03-30T04:10:26;96297.03;;;17.20;60.90
20971;BME280;10644;48.834;10.088;2023-03-30T04:12:55;96287.44;;;17.01;61.56
20971;BME280;10644;48.834;10.088;2023-03-30T04:15:22;96289.50;;;17.07;61.09
20971;BME280;10644;48.834;10.088;2023-03-30T04:17:47;96283.81;;;17.13;61.11
20971;BME280;10644;48.834;10.088;2023-03-30T04:20:25;96275.59;;;16.99;62.47
20971;BME280;10644;48.834;10.088;2023-03-30T04:22:51;96268.25;;;17.04;61.43
20971;BME280;10644;48.834;10.088;2023-03-30T04:25:18;96262.41;;;17.11;61.57
20971;BME280;10644;48.834;10.088;2023-03-30T04:27:49;96250.97;;;17.14;61.22
20971;BME280;10644;48.834;10.088;2023-03-30T04:30:16;96253.69;;;17.12;61.77
20971;BME280;10644;48.834;10.088;2023-03-30T04:32:43;96256.09;;;16.95;62.15
20971;BME280;10644;48.834;10.088;2023-03-30T04:35:09;96250.38;;;16.31;64.98
20971;BME280;10644;48.834;10.088;2023-03-30T04:37:35;96259.00;;;16.21;65.24
20971;BME280;10644;48.834;10.088;2023-03-30T04:40:03;96256.19;;;16.24;65.47
20971;BME280;10644;48.834;10.088;2023-03-30T04:42:34;96248.34;;;16.35;64.85
20971;BME280;10644;48.834;10.088;2023-03-30T04:45:05;96244.56;;;16.39;64.87
20971;BME280;10644;48.834;10.088;2023-03-30T04:47:32;96241.97;;;16.39;65.03
20971;BME280;10644;48.834;10.088;2023-03-30T04:49:58;96237.44;;;16.31;65.01
20971;BME280;10644;48.834;10.088;2023-03-30T04:52:24;96238.69;;;16.37;64.94
20971;BME280;10644;48.834;10.088;2023-03-30T04:54:51;96246.56;;;16.35;64.91
20971;BME280;10644;48.834;10.088;2023-03-30T04:57:17;96246.72;;;16.34;64.88
20971;BME280;10644;48.834;10.088;2023-03-30T04:59:43;96242.13;;;15.96;66.40
20971;BME280;10644;48.834;10.088;2023-03-30T05:02:11;96229.03;;;15.68;67.34
20971;BME280;10644;48.834;10.088;2023-03-30T05:04:37;96227.06;;;15.81;66.84
20971;BME280;10644;48.834;10.088;2023-03-30T05:07:03;96229.53;;;16.03;66.18
20971;BME280;10644;48.834;10.088;2023-03-30T05:09:29;96215.72;;;15.93;66.50
20971;BME280;10644;48.834;10.088;2023-03-30T05:11:54;96216.47;;;16.04;65.98
20971;BME280;10644;48.834;10.088;2023-03-30T05:14:20;96205.25;;;16.15;65.32
20971;BME280;10644;48.834;10.088;2023-03-30T05:16:45;96199.41;;;16.13;65.55
20971;BME280;10644;48.834;10.088;2023-03-30T05:19:11;96197.53;;;16.24;65.28
20971;BME280;10644;48.834;10.088;2023-03-30T05:21:37;96205.88;;;15.87;67.04
20971;BME280;10644;48.834;10.088;2023-03-30T05:24:05;96187.44;;;15.71;67.72
20971;BME280;10644;48.834;10.088;2023-03-30T05:26:31;96181.66;;;15.58;68.13
20971;BME280;10644;48.834;10.088;2023-03-30T05:28:56;96165.38;;;15.15;69.81
20971;BME280;10644;48.834;10.088;2023-03-30T05:31:22;96154.38;;;15.13;69.82
20971;BME280;10644;48.834;10.088;2023-03-30T05:33:47;96159.53;;;15.44;68.65
20971;BME280;10644;48.834;10.088;2023-03-30T05:36:15;96158.34;;;15.69;67.41
20971;BME280;10644;48.834;10.088;2023-03-30T05:38:40;96165.66;;;15.64;67.79
20971;BME280;10644;48.834;10.088;2023-03-30T05:41:06;96182.97;;;15.73;67.22
20971;BME280;10644;48.834;10.088;2023-03-30T05:43:37;96178.94;;;15.80;66.85
20971;BME280;10644;48.834;10.088;2023-03-30T05:46:03;96175.97;;;15.64;67.18
20971;BME280;10644;48.834;10.088;2023-03-30T05:48:29;96162.38;;;15.62;66.83
20971;BME280;10644;48.834;10.088;2023-03-30T05:50:55;96163.50;;;15.69;66.46
20971;BME280;10644;48.834;10.088;2023-03-30T05:53:20;96152.84;;;15.62;66.61
20971;BME280;10644;48.834;10.088;2023-03-30T05:55:47;96170.63;;;15.56;67.25
20971;BME280;10644;48.834;10.088;2023-03-30T05:58:15;96173.44;;;15.53;67.43
20971;BME280;10644;48.834;10.088;2023-03-30T06:00:42;96174.03;;;15.56;67.32
20971;BME280;10644;48.834;10.088;2023-03-30T06:03:09;96183.44;;;15.46;66.47
20971;BME280;10644;48.834;10.088;2023-03-30T06:05:39;96185.19;;;15.57;66.00
20971;BME280;10644;48.834;10.088;2023-03-30T06:08:09;96181.41;;;15.61;66.53
20971;BME280;10644;48.834;10.088;2023-03-30T06:10:35;96193.09;;;15.44;67.07
20971;BME280;10644;48.834;10.088;2023-03-30T06:13:01;96184.34;;;15.56;66.80
20971;BME280;10644;48.834;10.088;2023-03-30T06:15:26;96181.47;;;15.70;65.92
20971;BME280;10644;48.834;10.088;2023-03-30T06:17:54;96175.03;;;15.65;65.67
20971;BME280;10644;48.834;10.088;2023-03-30T06:20:19;96166.25;;;15.77;64.82
20971;BME280;10644;48.834;10.088;2023-03-30T06:22:46;96163.75;;;15.86;64.52
20971;BME280;10644;48.834;10.088;2023-03-30T06:25:12;96164.06;;;15.93;64.92
20971;BME280;10644;48.834;10.088;2023-03-30T06:27:37;96177.53;;;15.96;64.38
20971;BME280;10644;48.834;10.088;2023-03-30T06:30:04;96163.53;;;15.99;64.13
20971;BME280;10644;48.834;10.088;2023-03-30T06:32:29;96167.50;;;16.03;63.83
20971;BME280;10644;48.834;10.088;2023-03-30T06:34:58;96170.53;;;16.08;63.73
20971;BME280;10644;48.834;10.088;2023-03-30T06:37:23;96158.53;;;15.97;64.08
20971;BME280;10644;48.834;10.088;2023-03-30T06:39:49;96150.63;;;15.99;64.12
20971;BME280;10644;48.834;10.088;2023-03-30T06:42:14;96157.19;;;16.03;64.14
20971;BME280;10644;48.834;10.088;2023-03-30T06:44:40;96150.63;;;15.99;64.00
20971;BME280;10644;48.834;10.088;2023-03-30T06:47:05;96144.78;;;15.97;64.07
20971;BME280;10644;48.834;10.088;2023-03-30T06:49:31;96157.41;;;16.00;63.94
20971;BME280;10644;48.834;10.088;2023-03-30T06:51:57;96172.56;;;16.04;63.60
20971;BME280;10644;48.834;10.088;2023-03-30T06:54:22;96183.53;;;15.97;63.73
20971;BME280;10644;48.834;10.088;2023-03-30T06:56:48;96170.00;;;15.84;64.15
20971;BME280;10644;48.834;10.088;2023-03-30T06:59:15;96201.41;;;15.68;64.83
20971;BME280;10644;48.834;10.088;2023-03-30T07:01:43;96205.50;;;15.71;65.35
20971;BME280;10644;48.834;10.088;2023-03-30T07:04:09;96217.63;;;15.91;65.18
20971;BME280;10644;48.834;10.088;2023-03-30T07:06:34;96211.59;;;16.11;64.63
20971;BME280;10644;48.834;10.088;2023-03-30T07:09:03;96233.50;;;16.37;64.08
20971;BME280;10644;48.834;10.088;2023-03-30T07:11:30;96228.97;;;16.50;63.66
20971;BME280;10644;48.834;10.088;2023-03-30T07:13:56;96228.16;;;16.49;63.51
20971;BME280;10644;48.834;10.088;2023-03-30T07:16:23;96239.50;;;16.58;63.08
20971;BME280;10644;48.834;10.088;2023-03-30T07:18:49;96226.78;;;16.45;63.79
20971;BME280;10644;48.834;10.088;2023-03-30T07:21:14;96220.28;;;16.51;63.81
20971;BME280;10644;48.834;10.088;2023-03-30T07:23:40;96212.94;;;16.56;63.47
20971;BME280;10644;48.834;10.088;2023-03-30T07:26:07;96218.38;;;16.53;63.63
20971;BME280;10644;48.834;10.088;2023-03-30T07:28:48;96207.06;;;16.44;63.13
20971;BME280;10644;48.834;10.088;2023-03-30T07:31:13;96212.84;;;16.37;63.11
20971;BME280;10644;48.834;10.088;2023-03-30T07:33:39;96217.00;;;16.49;62.89
20971;BME280;10644;48.834;10.088;2023-03-30T07:36:05;96215.16;;;16.60;62.55
20971;BME280;10644;48.834;10.088;2023-03-30T07:38:32;96218.19;;;16.75;63.00
20971;BME280;10644;48.834;10.088;2023-03-30T07:41:00;96214.66;;;16.76;62.46
20971;BME280;10644;48.834;10.088;2023-03-30T07:43:25;96222.97;;;16.89;62.64
20971;BME280;10644;48.834;10.088;2023-03-30T07:45:53;96239.63;;;16.96;61.90
20971;BME280;10644;48.834;10.088;2023-03-30T07:48:19;96265.13;;;17.00;62.09
20971;BME280;10644;48.834;10.088;2023-03-30T07:50:44;96258.78;;;16.84;61.45
20971;BME280;10644;48.834;10.088;2023-03-30T07:53:09;96274.16;;;16.76;61.92
20971;BME280;10644;48.834;10.088;2023-03-30T07:55:37;96287.84;;;16.67;62.04
20971;BME280;10644;48.834;10.088;2023-03-30T07:58:05;96308.25;;;16.60;61.58
20971;BME280;10644;48.834;10.088;2023-03-30T08:00:34;96310.34;;;16.46;62.88
20971;BME280;10644;48.834;10.088;2023-03-30T08:02:59;96313.94;;;16.34;63.05
20971;BME280;10644;48.834;10.088;2023-03-30T08:05:25;96310.31;;;16.25;63.45
20971;BME280;10644;48.834;10.088;2023-03-30T08:07:53;96345.44;;;16.28;63.65
20971;BME280;10644;48.834;10.088;2023-03-30T08:10:19;96336.53;;;16.21;64.31
20971;BME280;10644;48.834;10.088;2023-03-30T08:12:44;96348.34;;;16.34;64.40
20971;BME280;10644;48.834;10.088;2023-03-30T08:15:10;96337.75;;;16.37;64.65
20971;BME280;10644;48.834;10.088;2023-03-30T08:17:37;96344.22;;;16.32;65.14
20971;BME280;10644;48.834;10.088;2023-03-30T08:20:03;96359.63;;;16.13;67.06
20971;BME280;10644;48.834;10.088;2023-03-30T08:22:33;96357.72;;;15.83;68.20
20971;BME280;10644;48.834;10.088;2023-03-30T08:25:00;96357.00;;;15.61;69.25
20971;BME280;10644;48.834;10.088;2023-03-30T08:27:28;96334.19;;;15.66;69.12
20971;BME280;10644;48.834;10.088;2023-03-30T08:29:53;96312.28;;;15.81;68.87
20971;BME280;10644;48.834;10.088;2023-03-30T08:32:21;96289.00;;;15.92;68.46
20971;BME280;10644;48.834;10.088;2023-03-30T08:34:49;96295.47;;;16.18;68.15
20971;BME280;10644;48.834;10.088;2023-03-30T08:37:14;96290.28;;;16.18;68.52
20971;BME280;10644;48.834;10.088;2023-03-30T08:39:40;96297.47;;;16.35;68.51
20971;BME280;10644;48.834;10.088;2023-03-30T08:44:42;96315.00;;;16.52;68.20
20971;BME280;10644;48.834;10.088;2023-03-30T08:47:15;96323.97;;;16.48;68.18
20971;BME280;10644;48.834;10.088;2023-03-30T08:50:46;96335.38;;;16.45;68.36
20971;BME280;10644;48.834;10.088;2023-03-30T08:52:52;96341.13;;;16.49;68.15
20971;BME280;10644;48.834;10.088;2023-03-30T08:56:09;96358.44;;;16.37;69.06
20971;BME280;10644;48.834;10.088;2023-03-30T08:58:20;96367.56;;;16.21;70.33
20971;BME280;10644;48.834;10.088;2023-03-30T09:01:18;96370.63;;;16.15;70.13
20971;BME280;10644;48.834;10.088;2023-03-30T09:09:21;96374.28;;;16.12;70.34
20971;BME280;10644;48.834;10.088;2023-03-30T09:11:51;96377.97;;;15.99;71.38
20971;BME280;10644;48.834;10.088;2023-03-30T09:14:50;96377.31;;;15.86;71.33
20971;BME280;10644;48.834;10.088;2023-03-30T09:17:20;96372.19;;;15.75;71.85
20971;BME280;10644;48.834;10.088;2023-03-30T09:19:56;96397.78;;;15.78;71.79
20971;BME280;10644;48.834;10.088;2023-03-30T09:22:49;96396.84;;;15.79;71.68
20971;BME280;10644;48.834;10.088;2023-03-30T09:25:24;96406.81;;;15.83;71.75
20971;BME280;10644;48.834;10.088;2023-03-30T09:28:04;96418.88;;;15.83;71.13
20971;BME280;10644;48.834;10.088;2023-03-30T09:30:44;96408.84;;;15.58;70.43
20971;BME280;10644;48.834;10.088;2023-03-30T09:33:28;96391.22;;;15.74;70.07
20971;BME280;10644;48.834;10.088;2023-03-30T09:36:16;96383.22;;;15.77;70.25
20971;BME280;10644;48.834;10.088;2023-03-30T09:38:47;96383.00;;;15.69;70.05
20971;BME280;10644;48.834;10.088;2023-03-30T09:43:58;96385.59;;;15.69;70.42
20971;BME280;10644;48.834;10.088;2023-03-30T09:46:24;96374.44;;;15.68;70.18
20971;BME280;10644;48.834;10.088;2023-03-30T09:48:50;96359.16;;;15.76;70.07
20971;BME280;10644;48.834;10.088;2023-03-30T09:51:17;96379.78;;;15.87;69.96
20971;BME280;10644;48.834;10.088;2023-03-30T09:53:44;96375.34;;;15.78;69.75
20971;BME280;10644;48.834;10.088;2023-03-30T09:56:34;96364.41;;;15.86;69.46
20971;BME280;10644;48.834;10.088;2023-03-30T09:59:44;96361.22;;;15.93;68.97
20971;BME280;10644;48.834;10.088;2023-03-30T10:02:19;96334.31;;;15.96;68.43
20971;BME280;10644;48.834;10.088;2023-03-30T10:07:40;96303.38;;;15.85;68.12
20971;BME280;10644;48.834;10.088;2023-03-30T10:15:38;96311.41;;;16.23;67.60
20971;BME280;10644;48.834;10.088;2023-03-30T10:20:46;96297.09;;;16.19;66.41
20971;BME280;10644;48.834;10.088;2023-03-30T10:23:20;96307.47;;;16.08;65.87
20971;BME280;10644;48.834;10.088;2023-03-30T10:25:46;96307.28;;;16.00;64.81
20971;BME280;10644;48.834;10.088;2023-03-30T10:28:49;96317.19;;;16.15;65.12
20971;BME280;10644;48.834;10.088;2023-03-30T10:31:16;96322.03;;;16.09;64.29
20971;BME280;10644;48.834;10.088;2023-03-30T10:33:43;96316.25;;;16.16;64.64
20971;BME280;10644;48.834;10.088;2023-03-30T10:36:10;96320.72;;;16.14;63.94
20971;BME280;10644;48.834;10.088;2023-03-30T10:38:46;96321.53;;;16.15;63.43
20971;BME280;10644;48.834;10.088;2023-03-30T10:41:14;96321.75;;;16.23;63.51
20971;BME280;10644;48.834;10.088;2023-03-30T10:43:41;96324.75;;;16.28;62.64
20971;BME280;10644;48.834;10.088;2023-03-30T10:51:28;96328.53;;;16.24;62.50
20971;BME280;10644;48.834;10.088;2023-03-30T10:54:16;96339.69;;;16.04;62.95
20971;BME280;10644;48.834;10.088;2023-03-30T10:56:54;96339.03;;;15.91;63.02
20971;BME280;10644;48.834;10.088;2023-03-30T11:04:58;96335.41;;;16.14;62.36
20971;BME280;10644;48.834;10.088;2023-03-30T11:07:32;96328.22;;;15.97;62.27
20971;BME280;10644;48.834;10.088;2023-03-30T11:10:15;96312.59;;;15.98;63.19
20971;BME280;10644;48.834;10.088;2023-03-30T11:12:47;96302.69;;;16.03;63.11
20971;BME280;10644;48.834;10.088;2023-03-30T11:15:20;96335.66;;;16.11;63.04
20971;BME280;10644;48.834;10.088;2023-03-30T11:20:49;96301.81;;;16.14;62.48
20971;BME280;10644;48.834;10.088;2023-03-30T11:23:23;96310.25;;;16.16;62.43
20971;BME280;10644;48.834;10.088;2023-03-30T11:26:02;96307.88;;;16.24;62.67
20971;BME280;10644;48.834;10.088;2023-03-30T11:31:00;96307.78;;;16.46;61.64
20971;BME280;10644;48.834;10.088;2023-03-30T11:33:45;96298.66;;;16.31;61.92
20971;BME280;10644;48.834;10.088;2023-03-30T11:36:18;96310.25;;;16.36;61.85
20971;BME280;10644;48.834;10.088;2023-03-30T11:39:01;96311.88;;;16.48;61.46
20971;BME280;10644;48.834;10.088;2023-03-30T11:41:39;96302.06;;;16.31;61.45
20971;BME280;10644;48.834;10.088;2023-03-30T11:44:10;96325.47;;;16.30;61.25
20971;BME280;10644;48.834;10.088;2023-03-30T11:47:02;96305.84;;;16.27;61.68
20971;BME280;10644;48.834;10.088;2023-03-30T11:55:19;96343.72;;;16.38;61.53
20971;BME280;10644;48.834;10.088;2023-03-30T11:58:16;96312.59;;;16.19;62.40
20971;BME280;10644;48.834;10.088;2023-03-30T12:00:48;96329.50;;;16.23;62.55
20971;BME280;10644;48.834;10.088;2023-03-30T12:05:49;96321.75;;;16.23;63.41
20971;BME280;10644;48.834;10.088;2023-03-30T12:14:28;96334.31;;;16.48;63.81
20971;BME280;10644;48.834;10.088;2023-03-30T12:17:03;96325.44;;;16.41;63.72
20971;BME280;10644;48.834;10.088;2023-03-30T12:19:42;96320.69;;;16.46;64.01
20971;BME280;10644;48.834;10.088;2023-03-30T12:22:22;96324.97;;;16.56;63.90
20971;BME280;10644;48.834;10.088;2023-03-30T12:24:57;96330.38;;;16.53;64.10
20971;BME280;10644;48.834;10.088;2023-03-30T12:27:26;96351.56;;;16.47;63.93
20971;BME280;10644;48.834;10.088;2023-03-30T12:30:12;96344.97;;;16.54;64.16
20971;BME280;10644;48.834;10.088;2023-03-30T12:32:59;96331.28;;;16.43;63.94
20971;BME280;10644;48.834;10.088;2023-03-30T12:35:52;96320.38;;;16.39;63.63
20971;BME280;10644;48.834;10.088;2023-03-30T12:38:24;96320.47;;;16.38;63.94
20971;BME280;10644;48.834;10.088;2023-03-30T12:41:13;96323.41;;;16.44;63.35
20971;BME280;10644;48.834;10.088;2023-03-30T12:44:03;96337.72;;;16.48;63.15
20971;BME280;10644;48.834;10.088;2023-03-30T12:52:15;96316.88;;;16.29;64.05
20971;BME280;10644;48.834;10.088;2023-03-30T12:57:37;96306.91;;;16.25;64.88
20971;BME280;10644;48.834;10.088;2023-03-30T13:05:49;96282.59;;;16.48;64.85
20971;BME280;10644;48.834;10.088;2023-03-30T13:11:04;96263.28;;;16.52;65.13
20971;BME280;10644;48.834;10.088;2023-03-30T13:13:49;96259.59;;;16.75;64.76
20971;BME280;10644;48.834;10.088;2023-03-30T13:16:48;96271.31;;;16.79;64.75
20971;BME280;10644;48.834;10.088;2023-03-30T13:27:55;96272.50;;;16.75;62.96
20971;BME280;10644;48.834;10.088;2023-03-30T13:30:11;96263.56;;;16.79;61.77
20971;BME280;10644;48.834;10.088;2023-03-30T13:45:54;96242.06;;;16.97;59.11
20971;BME280;10644;48.834;10.088;2023-03-30T13:51:04;96245.16;;;17.31;56.89
20971;BME280;10644;48.834;10.088;2023-03-30T13:53:38;96237.63;;;17.28;57.14
20971;BME280;10644;48.834;10.088;2023-03-30T13:56:07;96235.66;;;17.41;58.17
20971;BME280;10644;48.834;10.088;2023-03-30T13:58:34;96215.34;;;17.65;57.14
20971;BME280;10644;48.834;10.088;2023-03-30T14:03:56;96220.91;;;17.89;54.39
20971;BME280;10644;48.834;10.088;2023-03-30T14:06:32;96203.03;;;18.05;54.02
20971;BME280;10644;48.834;10.088;2023-03-30T14:11:40;96199.44;;;18.34;52.73
20971;BME280;10644;48.834;10.088;2023-03-30T14:14:06;96169.50;;;18.40;51.96
20971;BME280;10644;48.834;10.088;2023-03-30T14:16:36;96181.09;;;18.45;51.88
20971;BME280;10644;48.834;10.088;2023-03-30T14:19:10;96185.81;;;18.13;51.04
20971;BME280;10644;48.834;10.088;2023-03-30T14:21:42;96182.13;;;18.16;52.14
20971;BME280;10644;48.834;10.088;2023-03-30T14:24:12;96190.38;;;18.29;51.66
20971;BME280;10644;48.834;10.088;2023-03-30T14:26:40;96197.19;;;18.30;50.45
20971;BME280;10644;48.834;10.088;2023-03-30T14:29:13;96167.38;;;18.53;51.12
20971;BME280;10644;48.834;10.088;2023-03-30T14:31:41;96179.06;;;18.66;50.26
20971;BME280;10644;48.834;10.088;2023-03-30T14:34:30;96178.63;;;18.44;49.90
20971;BME280;10644;48.834;10.088;2023-03-30T14:37:02;96193.31;;;18.53;50.55
20971;BME280;10644;48.834;10.088;2023-03-30T14:39:30;96174.97;;;18.64;49.88
20971;BME280;10644;48.834;10.088;2023-03-30T14:42:07;96171.13;;;18.68;49.07
20971;BME280;10644;48.834;10.088;2023-03-30T14:44:37;96178.78;;;18.69;48.32
20971;BME280;10644;48.834;10.088;2023-03-30T14:47:05;96165.94;;;18.68;48.07
20971;BME280;10644;48.834;10.088;2023-03-30T14:49:30;96189.88;;;18.62;48.98
20971;BME280;10644;48.834;10.088;2023-03-30T14:52:47;96177.94;;;18.51;49.02
20971;BME280;10644;48.834;10.088;2023-03-30T14:54:50;96176.44;;;18.49;49.24
20971;BME280;10644;48.834;10.088;2023-03-30T14:57:18;96162.97;;;18.63;48.91
20971;BME280;10644;48.834;10.088;2023-03-30T14:59:51;96168.28;;;18.71;48.92
20971;BME280;10644;48.834;10.088;2023-03-30T15:02:19;96143.44;;;18.68;48.02
20971;BME280;10644;48.834;10.088;2023-03-30T15:04:46;96165.88;;;18.77;48.62
20971;BME280;10644;48.834;10.088;2023-03-30T15:07:14;96141.75;;;18.94;47.33
20971;BME280;10644;48.834;10.088;2023-03-30T15:09:41;96144.13;;;18.88;47.55
20971;BME280;10644;48.834;10.088;2023-03-30T15:12:17;96157.31;;;18.50;48.13
20971;BME280;10644;48.834;10.088;2023-03-30T15:14:46;96162.75;;;18.56;48.97
20971;BME280;10644;48.834;10.088;2023-03-30T15:17:18;96167.31;;;18.72;48.95
20971;BME280;10644;48.834;10.088;2023-03-30T15:19:45;96159.97;;;18.67;48.70
20971;BME280;10644;48.834;10.088;2023-03-30T15:22:26;96164.59;;;18.64;48.67
20971;BME280;10644;48.834;10.088;2023-03-30T15:24:55;96178.34;;;18.47;47.89
20971;BME280;10644;48.834;10.088;2023-03-30T15:27:22;96172.78;;;18.32;47.70
20971;BME280;10644;48.834;10.088;2023-03-30T15:29:50;96165.84;;;18.23;48.07
20971;BME280;10644;48.834;10.088;2023-03-30T15:32:19;96193.84;;;18.20;47.64
20971;BME280;10644;48.834;10.088;2023-03-30T15:37:25;96212.59;;;17.85;47.79
20971;BME280;10644;48.834;10.088;2023-03-30T15:39:51;96219.81;;;17.91;47.28